Time;durP1;ratioP1;P1;durP2;ratioP2;P2;SDS_P1;SDS_P2;PMS_P1;PMS_P2;Temp;Humidity;BMP_temperature;BMP_pressure;BME280_temperature;BME280_humidity;BME280_pressure;Samples;Min_cycle;Max_cycle;Signal;HPM_P1;HPM_P2
2022/05/26 00:01:05;;;;;;;7.00;3.90;;;;;;;12.05;81.26;100611.83;1689441;85;21058;-86
2022/05/26 00:03:34;;;;;;;7.22;3.50;;;;;;;12.05;81.16;100610.08;1689303;85;21038;-86
2022/05/26 00:06:02;;;;;;;6.65;3.80;;;;;;;12.05;81.12;100606.58;1689388;85;21092;-85
2022/05/26 00:08:29;;;;;;;5.03;3.60;;;;;;;12.00;80.89;100612.50;1689083;85;21495;-86
2022/05/26 00:10:57;;;;;;;6.00;3.80;;;;;;;11.96;80.90;100615.67;1689302;84;21638;-86
2022/05/26 00:13:25;;;;;;;5.10;3.83;;;;;;;11.93;80.90;100612.33;1689207;84;21011;-86
2022/05/26 00:15:53;;;;;;;5.25;3.33;;;;;;;11.89;80.61;100614.66;1689603;84;21050;-86
2022/05/26 00:18:20;;;;;;;5.75;3.55;;;;;;;11.83;80.76;100615.72;1689064;85;21137;-86
2022/05/26 00:20:47;;;;;;;4.53;3.67;;;;;;;11.80;80.69;100610.59;1689366;85;20967;-86
2022/05/26 00:23:14;;;;;;;4.17;3.52;;;;;;;11.76;80.73;100616.42;1689041;85;21253;-86
2022/05/26 00:25:41;;;;;;;5.78;3.33;;;;;;;11.74;80.79;100622.65;1689384;85;20999;-87
2022/05/26 00:28:08;;;;;;;5.35;3.33;;;;;;;11.69;80.66;100619.34;1689243;85;21051;-86
2022/05/26 00:30:37;;;;;;;5.67;3.90;;;;;;;11.64;80.35;100619.53;1689310;85;21109;-86
2022/05/26 00:33:07;;;;;;;6.58;3.60;;;;;;;11.54;80.27;100612.45;1688944;85;21039;-86
2022/05/26 00:35:36;;;;;;;4.80;3.62;;;;;;;11.44;80.18;100613.69;1689315;85;21066;-86
2022/05/26 00:38:05;;;;;;;5.35;3.12;;;;;;;11.37;79.96;100613.54;1689152;85;21015;-86
2022/05/26 00:40:32;;;;;;;4.58;3.25;;;;;;;11.33;80.39;100611.92;1689310;85;21619;-85
2022/05/26 00:43:00;;;;;;;4.53;3.47;;;;;;;11.29;80.44;100608.56;1698553;82;21483;-86
2022/05/26 00:45:41;;;;;;;4.65;3.72;;;;;;;11.26;80.67;100604.74;1714237;82;21076;-85
2022/05/26 00:48:13;;;;;;;7.00;3.87;;;;;;;11.20;80.50;100615.47;1713127;83;21036;-85
2022/05/26 00:50:48;;;;;;;5.60;4.42;;;;;;;11.16;80.51;100616.47;1714098;83;21537;-85
2022/05/26 00:53:36;;;;;;;4.90;3.93;;;;;;;11.11;80.66;100614.03;1712975;83;21072;-86
2022/05/26 00:56:20;;;;;;;4.67;3.77;;;;;;;11.09;80.79;100617.63;1711565;83;21883;-86
2022/05/26 00:58:52;;;;;;;5.10;4.10;;;;;;;11.05;80.96;100614.23;1713591;83;21070;-86
2022/05/26 01:01:20;;;;;;;5.70;4.23;;;;;;;11.03;81.21;100609.52;1713586;83;21049;-85
2022/05/26 01:03:55;;;;;;;5.83;4.37;;;;;;;11.06;81.58;100607.24;1713813;83;21665;-85
2022/05/26 01:06:50;;;;;;;4.58;4.17;;;;;;;11.13;82.12;100607.41;1713764;83;21501;-85
2022/05/26 01:09:18;;;;;;;5.90;4.28;;;;;;;11.12;81.89;100608.33;1689025;84;21965;-86
2022/05/26 01:11:46;;;;;;;5.67;4.13;;;;;;;11.15;82.27;100602.97;1739920;82;21038;-86
2022/05/26 01:14:21;;;;;;;4.85;3.92;;;;;;;11.18;82.17;100607.25;1746501;81;21539;-85
2022/05/26 01:17:15;;;;;;;6.08;3.83;;;;;;;11.17;82.30;100609.02;1746592;81;20999;-85
2022/05/26 01:20:05;;;;;;;4.85;4.15;;;;;;;11.19;82.06;100612.89;1746386;81;21517;-85
2022/05/26 01:22:40;;;;;;;8.85;4.25;;;;;;;11.20;82.55;100608.91;1731016;82;21111;-85
2022/05/26 01:25:28;;;;;;;4.87;4.03;;;;;;;11.26;82.71;100602.58;1746585;82;20975;-86
2022/05/26 01:28:12;;;;;;;7.77;4.23;;;;;;;11.30;82.99;100594.98;1744196;82;21031;-85
2022/05/26 01:31:06;;;;;;;6.33;4.30;;;;;;;11.35;82.95;100598.30;1746835;81;21063;-86
2022/05/26 01:34:03;;;;;;;4.50;3.60;;;;;;;11.38;83.00;100600.34;1746879;82;21508;-86
2022/05/26 01:36:56;;;;;;;8.15;4.40;;;;;;;11.43;82.97;100600.64;1747080;82;21128;-86
2022/05/26 01:39:56;;;;;;;5.70;3.10;;;;;;;11.38;82.30;100598.18;1746735;82;21052;-86
2022/05/26 01:42:51;;;;;;;5.80;3.87;;;;;;;11.31;81.83;100599.34;1747121;82;21520;-86
2022/05/26 01:46:01;;;;;;;5.50;3.90;;;;;;;11.25;82.06;100601.73;1746093;82;21742;-85
2022/05/26 01:48:53;;;;;;;5.65;3.42;;;;;;;11.22;82.34;100597.88;1747126;81;21031;-84
2022/05/26 01:51:31;;;;;;;4.87;3.87;;;;;;;11.22;82.22;100595.26;1746943;81;21865;-84
2022/05/26 01:54:20;;;;;;;5.72;3.85;;;;;;;11.21;82.59;100597.95;1747303;80;21078;-85
2022/05/26 01:57:14;;;;;;;5.03;3.63;;;;;;;11.22;82.72;100598.34;1754167;80;21446;-84
2022/05/26 01:59:49;;;;;;;5.33;3.60;;;;;;;11.24;82.81;100596.06;1754655;81;21094;-84
2022/05/26 02:02:22;;;;;;;4.27;3.47;;;;;;;11.28;82.96;100599.42;1754694;81;21384;-84
2022/05/26 02:04:55;;;;;;;4.67;3.87;;;;;;;11.34;83.17;100597.91;1754853;81;21517;-84
2022/05/26 02:07:50;;;;;;;6.40;3.33;;;;;;;11.38;82.96;100594.25;1754332;81;21046;-84
2022/05/26 02:10:38;;;;;;;3.92;3.10;;;;;;;11.42;82.99;100592.35;1754979;81;20995;-84
2022/05/26 02:13:13;;;;;;;4.97;2.83;;;;;;;11.38;82.07;100596.41;1753917;80;21000;-84
2022/05/26 02:15:51;;;;;;;3.60;3.17;;;;;;;11.33;82.22;100599.69;1754823;81;21038;-84
2022/05/26 02:18:25;;;;;;;3.17;2.50;;;;;;;11.32;82.11;100596.64;1753849;80;21313;-84
2022/05/26 02:20:59;;;;;;;5.35;2.87;;;;;;;11.26;81.62;100590.31;1754746;81;21031;-84
2022/05/26 02:23:37;;;;;;;4.10;2.65;;;;;;;11.21;81.51;100592.70;1754482;81;21067;-84
2022/05/26 02:26:06;;;;;;;8.53;3.12;;;;;;;11.12;81.39;100599.15;1754677;81;21046;-84
2022/05/26 02:31:26;;;;;;;4.00;2.23;;;;;;;11.04;81.23;100591.55;1754893;81;21164;-81
2022/05/26 02:33:57;;;;;;;5.53;2.12;;;;;;;11.02;81.67;100595.98;1754379;79;21097;-83
2022/05/26 02:36:27;;;;;;;3.00;2.13;;;;;;;11.14;81.84;100596.87;1732056;81;21105;-84
2022/05/26 02:38:54;;;;;;;2.60;1.87;;;;;;;11.19;81.76;100593.20;1754535;81;22212;-84
2022/05/26 02:41:23;;;;;;;3.47;2.17;;;;;;;11.21;81.68;100600.58;1754712;81;21529;-84
2022/05/26 02:43:51;;;;;;;2.67;2.00;;;;;;;11.32;82.03;100599.73;1754445;81;21109;-84
2022/05/26 02:46:29;;;;;;;3.10;1.67;;;;;;;11.42;81.79;100600.22;1754685;81;21101;-84
2022/05/26 02:49:32;;;;;;;1.72;0.82;;;;;;;11.49;81.60;100605.20;1754066;80;21026;-84
2022/05/26 02:52:42;;;;;;;1.82;1.02;;;;;;;11.61;81.25;100602.13;1754805;81;21548;-84
2022/05/26 02:55:45;;;;;;;1.67;0.90;;;;;;;11.79;80.96;100601.01;1754351;80;21044;-84
2022/05/26 02:58:21;;;;;;;1.60;0.90;;;;;;;12.02;80.47;100590.94;1754592;80;21128;-84
2022/05/26 03:00:57;;;;;;;1.42;0.90;;;;;;;12.28;80.09;100589.44;1754240;80;20959;-84
2022/05/26 03:03:33;;;;;;;3.70;0.93;;;;;;;12.48;79.60;100589.06;1754574;81;21062;-84
2022/05/26 03:06:23;;;;;;;1.42;1.07;;;;;;;12.62;79.23;100588.48;1754560;81;21069;-85
2022/05/26 03:08:52;;;;;;;1.85;1.10;;;;;;;12.73;78.86;100592.36;1754554;80;21011;-83
2022/05/26 03:11:23;;;;;;;2.75;1.02;;;;;;;12.85;78.61;100594.91;1754690;81;21181;-84
2022/05/26 03:13:51;;;;;;;2.67;1.10;;;;;;;12.93;78.26;100584.06;1754342;81;21540;-85
2022/05/26 03:16:18;;;;;;;1.70;1.00;;;;;;;13.00;77.91;100588.59;1754713;81;20947;-85
2022/05/26 03:18:46;;;;;;;3.58;1.20;;;;;;;13.04;77.74;100589.70;1754392;80;21055;-84
2022/05/26 03:21:14;;;;;;;4.10;1.12;;;;;;;13.10;77.51;100591.21;1754821;81;21016;-84
2022/05/26 03:23:41;;;;;;;2.30;1.30;;;;;;;13.14;77.23;100591.48;1754420;80;21110;-85
2022/05/26 03:26:08;;;;;;;1.22;1.10;;;;;;;13.18;76.94;100582.05;1754681;81;21253;-85
2022/05/26 03:28:35;;;;;;;2.45;1.30;;;;;;;13.22;76.68;100582.78;1754526;81;20912;-85
2022/05/26 03:31:08;;;;;;;3.00;1.12;;;;;;;13.29;76.58;100582.06;1754681;80;21054;-84
2022/05/26 03:41:53;;;;;;;0.95;0.82;;;;;;;13.53;75.22;100591.48;1754540;81;21022;-84
2022/05/26 03:44:21;;;;;;;3.33;1.05;;;;;;;13.60;75.01;100592.03;1754690;81;21544;-84
2022/05/26 03:46:50;;;;;;;2.02;0.93;;;;;;;13.65;74.65;100595.31;1754458;81;21584;-83
2022/05/26 03:49:17;;;;;;;2.92;0.70;;;;;;;13.70;74.37;100593.80;1754718;81;21130;-84
2022/05/26 03:51:44;;;;;;;3.00;0.75;;;;;;;13.79;73.88;100590.72;1754449;81;21047;-84
2022/05/26 03:54:11;;;;;;;2.55;0.90;;;;;;;13.86;73.60;100586.88;1754455;81;21106;-84
2022/05/26 03:56:38;;;;;;;1.40;0.88;;;;;;;13.93;73.31;100594.86;1747245;81;21019;-85
2022/05/26 03:59:05;;;;;;;1.50;0.90;;;;;;;13.96;73.16;100585.95;1746798;82;21011;-85
2022/05/26 04:01:33;;;;;;;1.98;1.22;;;;;;;13.95;72.94;100592.17;1746813;81;21181;-85
2022/05/26 04:04:00;;;;;;;2.08;1.20;;;;;;;13.96;72.85;100592.08;1746616;81;20985;-84
2022/05/26 04:06:28;;;;;;;2.12;0.90;;;;;;;13.96;72.79;100592.55;1746764;81;21038;-85
2022/05/26 04:08:56;;;;;;;1.35;1.05;;;;;;;13.95;72.65;100596.97;1746773;82;21537;-84
2022/05/26 04:11:24;;;;;;;1.42;1.02;;;;;;;13.95;72.55;100591.70;1746728;82;21559;-85
2022/05/26 04:13:52;;;;;;;4.37;1.40;;;;;;;13.98;72.62;100584.11;1746699;82;21985;-85
2022/05/26 04:16:21;;;;;;;1.65;1.10;;;;;;;14.00;72.50;100592.80;1746720;81;20901;-85
2022/05/26 04:18:48;;;;;;;3.47;1.32;;;;;;;13.99;72.37;100585.34;1746593;81;21027;-85
2022/05/26 04:21:15;;;;;;;3.55;1.32;;;;;;;14.01;72.34;100584.81;1746671;81;21027;-85
2022/05/26 04:23:42;;;;;;;3.00;1.10;;;;;;;14.03;72.29;100588.70;1746897;82;21071;-84
2022/05/26 04:26:11;;;;;;;2.35;1.10;;;;;;;14.05;72.17;100586.86;1746595;82;21146;-85
2022/05/26 04:28:38;;;;;;;2.25;1.42;;;;;;;14.08;72.06;100584.06;1746821;82;20984;-84
2022/05/26 04:31:06;;;;;;;1.22;1.05;;;;;;;14.10;71.99;100587.45;1746624;81;21019;-83
2022/05/26 04:33:33;;;;;;;2.92;1.27;;;;;;;14.14;71.87;100593.45;1746915;82;21024;-85
2022/05/26 04:36:05;;;;;;;2.50;1.30;;;;;;;14.13;71.73;100591.26;1746473;81;21063;-92
2022/05/26 04:38:33;;;;;;;3.30;1.20;;;;;;;14.14;71.64;100590.81;1746796;81;21096;-84
2022/05/26 04:41:04;;;;;;;2.12;1.30;;;;;;;14.14;71.51;100589.03;1746574;81;21052;-83
2022/05/26 04:43:31;;;;;;;1.25;0.90;;;;;;;14.18;71.45;100590.57;1746886;82;21031;-83
2022/05/26 04:46:01;;;;;;;2.72;1.07;;;;;;;14.20;71.33;100594.47;1746779;82;21545;-83
2022/05/26 04:48:28;;;;;;;3.22;0.88;;;;;;;14.22;71.20;100586.88;1746907;82;21356;-83
2022/05/26 04:50:56;;;;;;;1.95;1.10;;;;;;;14.24;71.10;100586.34;1746742;82;21136;-84
2022/05/26 04:53:23;;;;;;;2.27;0.98;;;;;;;14.28;71.03;100598.91;1746873;81;21532;-84
2022/05/26 04:55:55;;;;;;;1.20;1.00;;;;;;;14.31;70.94;100596.58;1750211;81;21026;-83
2022/05/26 04:58:22;;;;;;;1.47;0.95;;;;;;;14.33;70.91;100602.17;1754319;80;21082;-84
2022/05/26 05:00:51;;;;;;;1.82;1.00;;;;;;;14.35;70.78;100597.66;1754867;81;21527;-84
2022/05/26 05:03:19;;;;;;;4.17;1.00;;;;;;;14.37;70.77;100599.75;1754413;80;21187;-84
2022/05/26 05:05:47;;;;;;;2.58;1.07;;;;;;;14.42;70.76;100603.49;1754348;81;21039;-85
2022/05/26 05:08:14;;;;;;;3.62;1.30;;;;;;;14.45;70.76;100594.11;1754406;81;20999;-83
2022/05/26 05:10:41;;;;;;;2.40;1.02;;;;;;;14.50;70.73;100600.01;1754420;81;21043;-83
2022/05/26 05:13:10;;;;;;;2.62;1.00;;;;;;;14.56;70.67;100600.20;1754415;80;21042;-83
2022/05/26 05:15:45;;;;;;;1.98;0.88;;;;;;;14.63;70.57;100602.89;1754655;80;21096;-82
2022/05/26 05:18:12;;;;;;;2.02;1.00;;;;;;;14.72;70.46;100603.77;1753459;80;21047;-83
2022/05/26 05:20:40;;;;;;;3.27;1.10;;;;;;;14.83;70.17;100605.86;1754832;81;21102;-82
2022/05/26 05:23:12;;;;;;;1.75;0.80;;;;;;;14.93;69.96;100615.84;1754355;81;21537;-83
2022/05/26 05:25:43;;;;;;;2.30;0.93;;;;;;;15.04;69.48;100619.72;1754778;81;21047;-83
2022/05/26 05:28:14;;;;;;;2.08;0.70;;;;;;;15.13;69.22;100617.47;1754591;81;21298;-82
2022/05/26 05:30:50;;;;;;;1.05;0.82;;;;;;;15.21;68.70;100617.52;1754546;81;21070;-82
2022/05/26 05:33:28;;;;;;;1.75;0.80;;;;;;;15.28;68.30;100621.55;1753082;80;21050;-82
2022/05/26 05:36:06;;;;;;;2.20;0.85;;;;;;;15.33;68.03;100623.48;1754659;81;21539;-81
2022/05/26 05:38:36;;;;;;;1.35;0.60;;;;;;;15.38;67.69;100630.22;1754430;81;21074;-81
2022/05/26 05:41:04;;;;;;;0.82;0.50;;;;;;;15.45;67.45;100625.92;1754657;81;21087;-81
2022/05/26 05:43:32;;;;;;;4.72;1.00;;;;;;;15.50;67.20;100625.22;1754304;81;21030;-81
2022/05/26 05:45:59;;;;;;;1.95;0.80;;;;;;;15.55;66.98;100633.28;1754401;81;21051;-81
2022/05/26 05:48:26;;;;;;;2.25;0.72;;;;;;;15.59;66.73;100629.99;1754428;81;21556;-80
2022/05/26 05:50:54;;;;;;;1.80;0.80;;;;;;;15.64;66.54;100635.88;1754643;81;21493;-84
2022/05/26 05:53:22;;;;;;;1.60;0.70;;;;;;;15.68;66.34;100630.84;1754483;81;21123;-82
2022/05/26 05:55:49;;;;;;;1.17;0.70;;;;;;;15.73;66.21;100625.31;1756163;79;21024;-83
2022/05/26 05:58:16;;;;;;;5.90;1.00;;;;;;;15.75;66.03;100633.54;1769215;80;21534;-85
2022/05/26 06:00:43;;;;;;;2.75;0.70;;;;;;;15.79;65.94;100631.58;1774466;80;21532;-84
2022/05/26 06:03:11;;;;;;;2.08;0.98;;;;;;;15.81;65.70;100633.20;1770346;80;21556;-85
2022/05/26 06:05:38;;;;;;;4.20;0.78;;;;;;;15.87;65.72;100635.12;1774356;80;21125;-83
2022/05/26 06:08:06;;;;;;;1.17;0.60;;;;;;;15.90;65.62;100636.27;1774430;80;21016;-84
2022/05/26 06:10:33;;;;;;;2.98;0.80;;;;;;;15.96;65.67;100633.28;1774548;80;21012;-85
2022/05/26 06:13:00;;;;;;;1.12;0.60;;;;;;;16.01;65.40;100637.84;1774515;80;21087;-85
2022/05/26 06:15:27;;;;;;;2.70;0.90;;;;;;;16.03;65.29;100632.86;1770718;80;21004;-83
2022/05/26 06:17:57;;;;;;;1.95;0.60;;;;;;;16.09;65.16;100642.71;1774211;80;21111;-87
2022/05/26 06:20:24;;;;;;;3.75;0.70;;;;;;;16.12;64.97;100642.53;1773750;80;27260;-86
2022/05/26 06:22:51;;;;;;;1.67;0.80;;;;;;;16.15;64.80;100642.36;1774862;80;21000;-87
2022/05/26 06:25:21;;;;;;;1.12;0.60;;;;;;;16.20;64.60;100638.52;1769886;80;21091;-85
2022/05/26 06:30:34;;;;;;;3.72;0.70;;;;;;;16.29;64.34;100642.42;1774644;80;21967;-84
2022/05/26 06:38:43;;;;;;;2.30;0.93;;;;;;;16.40;63.82;100651.92;1747671;80;21063;-87
2022/05/26 06:44:03;;;;;;;1.50;0.80;;;;;;;16.54;63.82;100648.48;1743760;82;21221;-87
2022/05/26 06:46:31;;;;;;;1.45;0.70;;;;;;;16.63;63.84;100653.73;1743817;81;20996;-86
2022/05/26 06:48:58;;;;;;;0.93;0.60;;;;;;;16.70;63.63;100655.91;1744014;81;21016;-86
2022/05/26 06:51:28;;;;;;;2.83;0.88;;;;;;;16.79;63.43;100662.97;1743996;82;21035;-87
2022/05/26 06:53:54;;;;;;;2.10;0.88;;;;;;;16.86;63.06;100658.55;1743852;81;21024;-85
2022/05/26 06:56:21;;;;;;;1.27;0.60;;;;;;;16.94;62.90;100665.57;1747884;81;21130;-85
2022/05/26 06:58:48;;;;;;;2.20;0.60;;;;;;;17.03;62.49;100665.49;1752895;80;20947;-83
2022/05/26 07:01:15;;;;;;;5.35;0.70;;;;;;;17.08;62.23;100663.91;1754254;81;21035;-87
2022/05/26 07:03:46;;;;;;;2.98;0.62;;;;;;;17.10;61.89;100658.90;1754256;81;21035;-86
2022/05/26 07:06:19;;;;;;;2.42;0.78;;;;;;;17.20;61.80;100663.63;1754492;81;21524;-87
2022/05/26 07:08:49;;;;;;;3.10;0.90;;;;;;;17.24;61.23;100672.63;1754075;81;21121;-86
2022/05/26 07:11:17;;;;;;;1.35;0.60;;;;;;;17.27;61.23;100676.90;1720675;82;21008;-85
2022/05/26 07:13:44;;;;;;;1.25;0.60;;;;;;;17.30;60.89;100678.03;1720396;81;21016;-83
2022/05/26 07:16:12;;;;;;;2.52;0.60;;;;;;;17.34;60.86;100676.41;1720577;83;21039;-85
2022/05/26 07:18:41;;;;;;;2.33;0.68;;;;;;;17.38;60.67;100672.64;1720407;81;21127;-83
2022/05/26 07:21:10;;;;;;;2.65;0.70;;;;;;;17.39;60.20;100676.14;1720503;82;21136;-85
2022/05/26 07:23:37;;;;;;;2.05;0.60;;;;;;;17.40;60.07;100677.83;1720459;82;21521;-90
2022/05/26 07:26:10;;;;;;;2.75;0.68;;;;;;;17.43;59.90;100671.49;1720810;83;21091;-82
2022/05/26 07:28:44;;;;;;;3.62;0.57;;;;;;;17.47;59.84;100669.89;1720457;82;21001;-80
2022/05/26 07:31:08;;;;;;;;;;;;;;;17.50;59.65;100673.68;1722469;82;21060;-84
2022/05/26 07:33:35;;;;;;;3.47;0.75;;;;;;;17.59;59.56;100673.58;1720523;83;21167;-86
2022/05/26 07:36:03;;;;;;;1.30;0.50;;;;;;;17.65;59.49;100673.67;1720733;82;21091;-85
2022/05/26 07:41:23;;;;;;;1.70;0.57;;;;;;;17.79;59.20;100669.71;1695515;81;21027;-82
2022/05/26 07:43:55;;;;;;;1.50;0.70;;;;;;;17.87;59.12;100667.43;1689400;84;21061;-84
2022/05/26 07:46:25;;;;;;;2.85;0.78;;;;;;;17.94;58.48;100666.11;1689188;85;21952;-85
2022/05/26 07:48:52;;;;;;;1.35;0.60;;;;;;;18.04;58.10;100676.97;1688921;85;21214;-83
2022/05/26 07:51:21;;;;;;;2.98;0.60;;;;;;;18.14;57.69;100681.23;1739843;82;20984;-83
2022/05/26 07:53:49;;;;;;;2.17;0.70;;;;;;;18.20;57.68;100688.30;1690221;84;21524;-85
2022/05/26 07:56:17;;;;;;;3.47;1.60;;;;;;;18.30;57.61;100677.12;1688910;84;21039;-85
2022/05/26 07:58:44;;;;;;;6.63;1.33;;;;;;;18.39;57.34;100681.81;1688968;85;21252;-84
2022/05/26 08:01:11;;;;;;;2.10;0.70;;;;;;;18.41;57.14;100671.48;1747683;82;21019;-84
2022/05/26 08:03:38;;;;;;;1.72;0.65;;;;;;;18.44;56.85;100671.75;1752779;81;21493;-84
2022/05/26 08:06:07;;;;;;;5.22;0.60;;;;;;;18.47;56.80;100679.52;1753116;81;21015;-86
2022/05/26 08:08:35;;;;;;;2.02;0.60;;;;;;;18.52;56.72;100676.56;1752752;81;21064;-85
2022/05/26 08:11:02;;;;;;;3.45;0.62;;;;;;;18.58;56.70;100679.66;1752899;81;22132;-95
2022/05/26 08:13:34;;;;;;;4.72;1.10;;;;;;;18.63;56.33;100678.88;1753103;81;20984;-86
2022/05/26 08:16:05;;;;;;;2.20;0.93;;;;;;;18.64;55.92;100683.22;1752376;81;21086;-83
2022/05/26 08:18:34;;;;;;;5.17;1.30;;;;;;;18.65;55.90;100674.33;1753209;81;21070;-84
2022/05/26 08:21:10;;;;;;;1.98;0.60;;;;;;;18.66;55.59;100676.50;1752704;81;21066;-85
2022/05/26 08:23:38;;;;;;;1.07;0.60;;;;;;;18.67;55.52;100671.55;1739726;81;21474;-85
2022/05/26 08:26:19;;;;;;;2.58;0.62;;;;;;;18.73;55.68;100669.81;1689415;84;21531;-86
2022/05/26 08:28:54;;;;;;;1.40;0.62;;;;;;;18.79;55.43;100675.22;1687547;84;21087;-87
2022/05/26 08:31:28;;;;;;;3.80;0.60;;;;;;;18.85;55.34;100674.34;1688378;84;21071;-86
2022/05/26 08:33:55;;;;;;;2.77;1.17;;;;;;;18.92;55.27;100667.66;1747225;82;20992;-86
2022/05/26 08:36:24;;;;;;;2.65;0.60;;;;;;;18.98;55.16;100675.68;1752912;81;21094;-86
2022/05/26 08:38:59;;;;;;;1.25;0.50;;;;;;;19.02;55.15;100667.89;1752637;81;21058;-85
2022/05/26 08:41:30;;;;;;;1.27;0.57;;;;;;;19.09;54.97;100673.63;1751941;81;21505;-85
2022/05/26 08:44:16;;;;;;;3.58;0.72;;;;;;;19.15;54.94;100678.06;1739587;80;21477;-88
2022/05/26 08:46:49;;;;;;;3.33;0.70;;;;;;;19.22;54.69;100665.19;1689998;84;21411;-85
2022/05/26 08:49:42;;;;;;;2.95;0.60;;;;;;;19.35;54.95;100675.35;1689144;85;21121;-86
2022/05/26 08:52:14;;;;;;;2.95;0.65;;;;;;;19.45;54.58;100668.05;1715709;83;21048;-85
2022/05/26 08:55:02;;;;;;;1.80;0.93;;;;;;;19.48;54.08;100670.05;1727063;83;21075;-85
2022/05/26 08:57:38;;;;;;;2.33;0.80;;;;;;;19.53;54.19;100669.70;1726713;81;21008;-85
2022/05/26 09:00:08;;;;;;;2.40;0.57;;;;;;;19.58;53.74;100671.56;1726359;81;21064;-84
2022/05/26 09:02:37;;;;;;;3.90;0.62;;;;;;;19.57;53.51;100672.05;1694786;83;21963;-84
2022/05/26 09:05:19;;;;;;;1.62;0.60;;;;;;;19.61;53.41;100670.02;1726986;83;21063;-84
2022/05/26 09:13:49;;;;;;;3.00;0.60;;;;;;;19.64;53.21;100665.80;1727209;83;21071;-87
2022/05/26 09:16:16;;;;;;;2.83;0.80;;;;;;;19.70;53.33;100661.41;1726824;83;22035;-85
2022/05/26 09:18:44;;;;;;;1.80;0.50;;;;;;;19.81;53.42;100668.17;1726721;83;21023;-85
2022/05/26 09:21:24;;;;;;;2.72;0.60;;;;;;;19.85;52.94;100668.80;1726549;83;21501;-85
2022/05/26 09:23:53;;;;;;;2.20;0.60;;;;;;;19.84;52.55;100669.73;1727114;83;21011;-82
2022/05/26 09:26:25;;;;;;;4.83;0.80;;;;;;;19.89;52.41;100678.72;1727046;83;21074;-87
2022/05/26 09:28:57;;;;;;;2.40;0.70;;;;;;;19.95;52.39;100675.16;1726942;83;21192;-86
2022/05/26 09:31:36;;;;;;;2.22;0.60;;;;;;;20.02;52.47;100676.89;1723990;82;20920;-85
2022/05/26 09:34:16;;;;;;;2.65;0.50;;;;;;;20.07;52.15;100683.22;1726701;83;21099;-86
2022/05/26 09:37:00;;;;;;;2.60;0.70;;;;;;;20.06;51.75;100687.66;1726830;83;21031;-85
2022/05/26 09:39:34;;;;;;;1.35;0.40;;;;;;;20.03;51.54;100691.39;1726627;83;21605;-85
2022/05/26 09:42:00;;;;;;;3.55;0.60;;;;;;;20.09;50.96;100687.44;1726512;83;21102;-86
2022/05/26 09:45:06;;;;;;;3.12;0.40;;;;;;;20.07;51.05;100692.05;1726786;83;21007;-81
2022/05/26 09:47:54;;;;;;;2.15;0.50;;;;;;;19.99;50.62;100692.59;1726344;83;21008;-86
2022/05/26 09:50:39;;;;;;;1.22;0.50;;;;;;;19.86;50.59;100694.42;1726905;83;21012;-86
2022/05/26 09:53:15;;;;;;;3.08;0.68;;;;;;;19.85;50.77;100693.22;1725346;83;21343;-86
2022/05/26 09:55:51;;;;;;;1.70;0.50;;;;;;;19.85;50.91;100686.56;1722345;82;21156;-86
2022/05/26 09:58:42;;;;;;;1.95;0.65;;;;;;;19.86;50.82;100704.22;1719154;81;21111;-86
2022/05/26 10:01:32;;;;;;;1.12;0.50;;;;;;;19.80;50.78;100701.03;1715293;83;21442;-87
2022/05/26 10:04:27;;;;;;;2.62;0.93;;;;;;;19.80;50.86;100698.86;1716518;82;21019;-84
2022/05/26 10:07:08;;;;;;;4.15;0.60;;;;;;;19.83;50.99;100702.14;1717247;82;21079;-85
2022/05/26 10:09:53;;;;;;;0.53;0.40;;;;;;;19.91;50.77;100722.03;1741725;82;21467;-85
2022/05/26 10:12:45;;;;;;;2.40;0.57;;;;;;;19.97;50.46;100701.16;1700951;83;21042;-87
2022/05/26 10:15:32;;;;;;;2.45;0.40;;;;;;;20.09;50.37;100707.40;1710471;83;21034;-84
2022/05/26 10:18:25;;;;;;;2.42;0.50;;;;;;;20.22;50.47;100706.05;1717286;83;21051;-84
2022/05/26 10:21:13;;;;;;;1.95;0.42;;;;;;;20.32;50.30;100699.59;1718025;83;21066;-86
2022/05/26 10:24:05;;;;;;;1.05;0.42;;;;;;;20.62;50.07;100711.16;1715369;83;21948;-81
2022/05/26 10:27:02;;;;;;;4.62;0.50;;;;;;;20.70;49.77;100720.73;1717774;83;21044;-84
2022/05/26 10:29:57;;;;;;;1.87;0.45;;;;;;;20.64;49.57;100719.86;1717790;83;21055;-86
2022/05/26 10:32:55;;;;;;;4.80;0.40;;;;;;;20.53;49.45;100711.33;1718632;83;21006;-81
2022/05/26 10:35:55;;;;;;;1.80;0.42;;;;;;;20.48;49.41;100705.48;1717806;83;21039;-76
2022/05/26 10:38:33;;;;;;;;;;;;;;;20.52;49.43;100711.42;1720421;83;21121;-90
2022/05/26 10:41:37;;;;;;;2.12;0.40;;;;;;;20.66;49.28;100713.95;1735128;82;20246;-83
2022/05/26 10:44:39;;;;;;;2.83;0.47;;;;;;;20.94;49.46;100701.57;1740623;82;21466;-85
2022/05/26 10:47:29;;;;;;;0.90;0.40;;;;;;;21.01;49.36;100709.97;1746046;82;21073;-89
2022/05/26 10:50:08;;;;;;;0.57;0.40;;;;;;;21.38;49.33;100712.02;1747350;82;21096;-84
2022/05/26 10:52:39;;;;;;;3.05;0.60;;;;;;;21.84;48.99;100710.24;1716158;82;21123;-87
2022/05/26 10:55:21;;;;;;;3.87;0.80;;;;;;;22.22;48.83;100699.16;1692542;84;21113;-84
2022/05/26 10:58:06;;;;;;;1.40;0.50;;;;;;;22.62;48.71;100705.75;1700672;83;21000;-86
2022/05/26 11:00:33;;;;;;;4.17;0.50;;;;;;;23.11;48.24;100700.31;1710887;83;21016;-88
2022/05/26 11:03:11;;;;;;;2.25;0.70;;;;;;;23.24;46.73;100704.13;1747914;80;21110;-89
2022/05/26 11:05:50;;;;;;;2.05;0.57;;;;;;;23.03;46.24;100694.77;1777620;80;21529;-88
2022/05/26 11:08:46;;;;;;;3.45;0.45;;;;;;;22.63;45.45;100720.80;1778763;80;21000;-86
2022/05/26 11:11:40;;;;;;;4.47;0.57;;;;;;;22.24;45.62;100709.73;1768179;80;21016;-85
2022/05/26 11:17:59;;;;;;;4.25;0.68;;;;;;;21.62;46.10;100717.76;1761890;80;21015;-84
2022/05/26 11:20:42;;;;;;;2.30;0.50;;;;;;;21.28;45.76;100727.47;1719682;83;21130;-79
2022/05/26 11:23:11;;;;;;;3.55;0.50;;;;;;;20.99;46.12;100727.04;1719838;83;21000;-79
2022/05/26 11:25:52;;;;;;;0.68;0.47;;;;;;;20.88;46.58;100723.36;1719683;82;21059;-81
2022/05/26 11:28:31;;;;;;;3.55;0.62;;;;;;;20.81;46.92;100732.80;1720018;83;21055;-83
2022/05/26 11:37:19;;;;;;;2.17;0.50;;;;;;;20.89;47.70;100725.53;1719722;83;20992;-84
2022/05/26 11:39:50;;;;;;;4.25;0.60;;;;;;;21.15;47.53;100720.42;1765441;80;21109;-83
2022/05/26 11:42:40;;;;;;;5.97;0.60;;;;;;;21.41;47.41;100722.93;1751950;80;47137;-82
2022/05/26 11:45:24;;;;;;;0.72;0.42;;;;;;;22.00;47.68;100715.19;1779059;80;21556;-84
2022/05/26 11:47:56;;;;;;;1.37;0.30;;;;;;;22.75;47.15;100705.06;1780198;80;21225;-82
2022/05/26 11:50:38;;;;;;;3.37;0.50;;;;;;;22.92;46.04;100704.53;1780281;80;20993;-84
2022/05/26 11:53:10;;;;;;;3.52;0.40;;;;;;;22.78;45.14;100699.96;1780331;80;21095;-82
2022/05/26 11:55:51;;;;;;;2.40;0.35;;;;;;;22.50;45.18;100707.59;1780182;80;21031;-82
2022/05/26 11:58:47;;;;;;;1.50;0.42;;;;;;;22.33;45.20;100714.81;1775601;80;21004;-83
2022/05/26 12:01:22;;;;;;;1.17;0.60;;;;;;;22.03;44.91;100722.94;1750286;81;21900;-81
2022/05/26 12:04:04;;;;;;;2.67;0.70;;;;;;;21.78;45.06;100713.38;1749717;81;21041;-83
2022/05/26 12:06:57;;;;;;;1.77;0.40;;;;;;;21.94;45.60;100704.52;1749812;81;21087;-82
2022/05/26 12:09:48;;;;;;;2.65;0.53;;;;;;;22.49;45.93;100699.23;1766839;80;21032;-81
2022/05/26 12:12:26;;;;;;;2.60;0.40;;;;;;;22.63;45.07;100696.75;1750982;82;21095;-81
2022/05/26 12:15:09;;;;;;;1.15;0.40;;;;;;;22.51;45.20;100695.11;1750322;81;21186;-81
2022/05/26 12:17:56;;;;;;;1.60;0.50;;;;;;;22.38;44.87;100697.44;1749190;80;21056;-81
2022/05/26 12:20:27;;;;;;;2.15;0.50;;;;;;;22.18;44.84;100707.08;1750612;82;21243;-83
2022/05/26 12:23:06;;;;;;;1.15;0.40;;;;;;;21.97;44.96;100704.76;1771805;80;21035;-84
2022/05/26 12:25:41;;;;;;;1.92;0.53;;;;;;;21.75;45.01;100702.45;1750764;82;21052;-83
2022/05/26 12:28:29;;;;;;;1.32;0.70;;;;;;;21.63;45.56;100705.27;1751034;82;21938;-82
2022/05/26 12:31:01;;;;;;;1.37;0.60;;;;;;;21.48;45.59;100705.99;1750280;82;21236;-80
2022/05/26 12:33:48;;;;;;;4.10;0.70;;;;;;;21.29;45.44;100710.04;1749526;81;21053;-84
2022/05/26 12:36:56;;;;;;;1.50;0.60;;;;;;;21.13;45.71;100705.52;1750725;82;21006;-83
2022/05/26 12:39:53;;;;;;;0.82;0.50;;;;;;;21.02;45.96;100704.16;1750694;82;21005;-85
2022/05/26 12:42:44;;;;;;;2.47;0.62;;;;;;;21.05;46.26;100699.43;1749168;82;21087;-84
2022/05/26 12:45:28;;;;;;;2.52;0.62;;;;;;;21.47;46.68;100689.11;1749100;80;21092;-85